Time;durP1;ratioP1;P1;durP2;ratioP2;P2;SDS_P1;SDS_P2;PMS_P1;PMS_P2;Temp;Humidity;BMP_temperature;BMP_pressure;BME280_temperature;BME280_humidity;BME280_pressure;Samples;Min_cycle;Max_cycle;Signal;HPM_P1;HPM_P2
2022/06/21 00:01:05;;;;;;;3.87;2.00;;;16.50;98.40;;;;;;4936883;29;20616;-81
2022/06/21 00:03:32;;;;;;;2.87;1.40;;;16.50;98.30;;;;;;4937644;29;20613;-81
2022/06/21 00:05:58;;;;;;;4.43;2.00;;;16.50;98.50;;;;;;4936544;29;20632;-80
2022/06/21 00:08:28;;;;;;;5.13;1.97;;;16.40;98.70;;;;;;4937106;29;20588;-81
2022/06/21 00:10:56;;;;;;;2.20;1.55;;;16.40;98.90;;;;;;4936814;29;20609;-80
2022/06/21 00:13:31;;;;;;;3.67;2.13;;;16.30;98.90;;;;;;4937239;29;20209;-81
2022/06/21 00:16:01;;;;;;;3.80;1.80;;;16.30;99.30;;;;;;4936027;29;20696;-81
2022/06/21 00:18:30;;;;;;;3.43;1.70;;;16.30;99.30;;;;;;4935932;29;21123;-81
2022/06/21 00:20:55;;;;;;;4.30;3.20;;;16.20;99.50;;;;;;4935294;29;20730;-82
2022/06/21 00:23:28;;;;;;;3.83;1.67;;;16.20;99.70;;;;;;4937068;29;21129;-81
2022/06/21 00:25:54;;;;;;;6.00;1.90;;;16.20;99.90;;;;;;4937012;29;20581;-80
2022/06/21 00:28:21;;;;;;;4.03;1.73;;;16.10;99.90;;;;;;4937004;29;20920;-82
2022/06/21 00:30:49;;;;;;;3.13;1.80;;;16.10;99.90;;;;;;4942313;29;21191;-81
2022/06/21 00:33:18;;;;;;;2.67;1.95;;;16.10;99.90;;;;;;4937191;29;20593;-81
2022/06/21 00:35:46;;;;;;;2.57;1.37;;;16.00;99.90;;;;;;4937247;29;20173;-81
2022/06/21 00:38:19;;;;;;;4.72;2.17;;;16.00;99.90;;;;;;4928286;29;20731;-81
2022/06/21 00:40:45;;;;;;;4.30;1.77;;;16.00;99.90;;;;;;4936204;29;20197;-81
2022/06/21 00:43:17;;;;;;;4.23;1.80;;;16.00;99.90;;;;;;4937023;29;20574;-81
2022/06/21 00:45:46;;;;;;;3.63;2.20;;;15.90;99.90;;;;;;4935623;29;20228;-81
2022/06/21 00:48:16;;;;;;;4.32;2.30;;;15.90;99.90;;;;;;4936871;29;20588;-80
2022/06/21 00:50:46;;;;;;;4.00;2.20;;;15.90;99.90;;;;;;4936172;29;20215;-80
2022/06/21 00:53:34;;;;;;;3.25;2.38;;;15.90;99.90;;;;;;4936783;29;21006;-80
2022/06/21 00:56:04;;;;;;;3.23;1.97;;;15.80;99.90;;;;;;4923851;29;20219;-80
2022/06/21 00:58:31;;;;;;;3.88;2.08;;;15.80;99.90;;;;;;4935225;29;21219;-81
2022/06/21 01:01:07;;;;;;;3.40;1.90;;;15.80;99.90;;;;;;4935961;29;20203;-80
2022/06/21 01:03:39;;;;;;;4.17;2.40;;;15.80;99.90;;;;;;4935674;29;20236;-80
2022/06/21 01:06:14;;;;;;;4.37;2.40;;;15.80;99.90;;;;;;4936908;29;20565;-81
2022/06/21 01:08:43;;;;;;;4.47;2.43;;;15.80;99.90;;;;;;4940667;29;20974;-80
2022/06/21 01:11:14;;;;;;;5.00;1.97;;;15.70;99.90;;;;;;4937147;29;20600;-81
2022/06/21 01:13:46;;;;;;;3.10;2.03;;;15.70;99.90;;;;;;4935966;29;21161;-81
2022/06/21 01:16:12;;;;;;;3.33;2.17;;;15.70;99.90;;;;;;4936340;29;20632;-80
2022/06/21 01:18:40;;;;;;;2.70;1.57;;;15.60;99.90;;;;;;4936238;29;21006;-80
2022/06/21 01:21:09;;;;;;;2.67;2.27;;;15.60;99.90;;;;;;4936897;29;20951;-81
2022/06/21 01:24:33;;;;;;;2.63;1.97;;;15.60;99.90;;;;;;4936044;29;20588;-81
2022/06/21 01:27:03;;;;;;;1.90;1.50;;;15.60;99.90;;;;;;4878946;29;20600;-80
2022/06/21 01:29:32;;;;;;;3.10;2.17;;;15.50;99.90;;;;;;4936288;29;20197;-81
2022/06/21 01:32:05;;;;;;;3.95;1.88;;;15.50;99.90;;;;;;4937040;29;20577;-81
2022/06/21 01:34:31;;;;;;;4.15;2.20;;;15.40;99.90;;;;;;4935912;29;20173;-80
2022/06/21 01:39:47;;;;;;;4.20;2.10;;;15.40;99.90;;;;;;4952581;28;20667;-74
2022/06/21 01:42:45;;;;;;;7.05;2.13;;;15.40;99.90;;;;;;4936899;29;20592;-74
2022/06/21 01:45:21;;;;;;;4.37;2.67;;;15.40;99.90;;;;;;4921035;29;20200;-74
2022/06/21 01:47:55;;;;;;;4.68;2.13;;;15.40;99.90;;;;;;4921243;29;20600;-73
2022/06/21 01:50:22;;;;;;;4.07;2.17;;;15.40;99.90;;;;;;4933452;29;20303;-74
2022/06/21 01:52:52;;;;;;;4.32;2.28;;;15.40;99.90;;;;;;4917756;29;20177;-74
2022/06/21 01:55:28;;;;;;;5.60;2.50;;;15.30;99.90;;;;;;4918181;29;20184;-74
2022/06/21 01:57:56;;;;;;;8.50;2.40;;;15.30;99.90;;;;;;4935418;29;20208;-73
2022/06/21 02:00:22;;;;;;;2.35;1.92;;;15.30;99.90;;;;;;4934761;29;20184;-73
2022/06/21 02:02:57;;;;;;;3.10;2.00;;;15.30;99.90;;;;;;4934986;29;20669;-73
2022/06/21 02:05:30;;;;;;;4.28;2.00;;;15.30;99.90;;;;;;4934883;29;20225;-74
2022/06/21 02:08:08;;;;;;;3.90;2.63;;;15.20;99.90;;;;;;4935183;29;20193;-74
2022/06/21 02:10:51;;;;;;;2.65;2.40;;;15.20;99.90;;;;;;4934401;29;20284;-74
2022/06/21 02:13:30;;;;;;;3.35;2.38;;;15.20;99.90;;;;;;4935211;29;20847;-74
2022/06/21 02:15:57;;;;;;;7.63;3.15;;;15.20;99.90;;;;;;4935074;29;20264;-74
2022/06/21 02:18:27;;;;;;;4.93;3.30;;;15.20;99.90;;;;;;4934577;29;20212;-74
2022/06/21 02:21:17;;;;;;;2.75;2.45;;;15.20;99.90;;;;;;4917080;29;20172;-74
2022/06/21 02:23:47;;;;;;;5.45;3.08;;;15.20;99.90;;;;;;4938523;29;20173;-74
2022/06/21 02:26:12;;;;;;;6.40;3.67;;;15.20;99.90;;;;;;4934853;29;20177;-74
2022/06/21 02:28:39;;;;;;;5.30;2.78;;;15.20;99.90;;;;;;4934614;29;21238;-74
2022/06/21 02:31:05;;;;;;;3.50;2.63;;;15.20;99.90;;;;;;4932742;28;20547;-74
2022/06/21 02:33:33;;;;;;;7.43;3.40;;;15.10;99.90;;;;;;4934480;29;20176;-74
2022/06/21 02:36:06;;;;;;;4.25;2.78;;;15.10;99.90;;;;;;4934627;29;20569;-74
2022/06/21 02:38:36;;;;;;;4.32;2.97;;;15.10;99.90;;;;;;4934442;29;20607;-74
2022/06/21 02:41:30;;;;;;;2.90;2.35;;;15.10;99.90;;;;;;4933726;29;20224;-74
2022/06/21 02:44:06;;;;;;;4.72;2.83;;;15.00;99.90;;;;;;4934468;29;20173;-74
2022/06/21 02:46:36;;;;;;;3.25;2.45;;;15.00;99.90;;;;;;4934711;29;20168;-74
2022/06/21 02:49:11;;;;;;;5.65;2.35;;;14.90;99.90;;;;;;4934376;29;20259;-74
2022/06/21 02:51:42;;;;;;;3.70;2.85;;;14.90;99.90;;;;;;4933833;29;20235;-74
2022/06/21 02:54:33;;;;;;;3.33;2.25;;;14.90;99.90;;;;;;4934396;29;20176;-74
2022/06/21 02:57:23;;;;;;;4.07;2.60;;;14.80;99.90;;;;;;4934446;29;20650;-74
2022/06/21 02:59:51;;;;;;;4.50;2.45;;;14.80;99.90;;;;;;4934781;29;20169;-73
2022/06/21 03:02:22;;;;;;;4.68;2.05;;;14.80;99.90;;;;;;4937708;29;20173;-74
2022/06/21 03:04:53;;;;;;;3.60;2.58;;;14.80;99.90;;;;;;4934419;29;20189;-74
2022/06/21 03:07:23;;;;;;;3.75;2.38;;;14.80;99.90;;;;;;4933007;29;20208;-74
2022/06/21 03:09:51;;;;;;;4.05;2.30;;;14.80;99.90;;;;;;4916938;29;20201;-74
2022/06/21 03:12:27;;;;;;;2.95;2.63;;;14.70;99.90;;;;;;4933852;29;20176;-74
2022/06/21 03:14:57;;;;;;;2.80;2.50;;;14.70;99.90;;;;;;4933359;29;20215;-74
2022/06/21 03:17:33;;;;;;;4.07;2.60;;;14.70;99.90;;;;;;4933958;29;20200;-74
2022/06/21 03:19:59;;;;;;;4.25;2.58;;;14.70;99.90;;;;;;4933865;29;20196;-74
2022/06/21 03:22:33;;;;;;;3.43;2.53;;;14.60;99.90;;;;;;4933728;29;20219;-77
2022/06/21 03:25:04;;;;;;;4.43;4.03;;;14.60;99.90;;;;;;4901565;29;20283;-77
2022/06/21 03:27:35;;;;;;;3.50;2.85;;;14.60;99.90;;;;;;4917323;29;20561;-77
2022/06/21 03:30:02;;;;;;;5.28;2.85;;;14.60;99.90;;;;;;4917046;29;20215;-77
2022/06/21 03:32:32;;;;;;;4.15;2.67;;;14.60;99.90;;;;;;4933725;29;20172;-77
2022/06/21 03:35:00;;;;;;;3.05;2.60;;;14.60;99.90;;;;;;4934400;29;20281;-77
2022/06/21 03:37:27;;;;;;;3.65;2.70;;;14.60;99.90;;;;;;4939120;29;20205;-77
2022/06/21 03:42:42;;;;;;;3.20;2.38;;;14.60;99.90;;;;;;4933649;29;20181;-77
2022/06/21 03:45:19;;;;;;;3.20;2.90;;;14.60;99.90;;;;;;4934143;29;20173;-77
2022/06/21 03:48:12;;;;;;;3.55;2.58;;;14.70;99.90;;;;;;4933801;29;20189;-77
2022/06/21 03:50:53;;;;;;;4.28;2.65;;;14.70;99.90;;;;;;4916473;29;20181;-73
2022/06/21 03:53:30;;;;;;;3.85;2.50;;;14.70;99.90;;;;;;4934135;29;20184;-74
2022/06/21 03:56:05;;;;;;;3.63;2.50;;;14.70;99.90;;;;;;4934086;29;20177;-74
2022/06/21 03:58:49;;;;;;;3.25;2.50;;;14.70;99.90;;;;;;4933111;29;20215;-74
2022/06/21 04:01:22;;;;;;;5.43;2.25;;;14.70;99.90;;;;;;4917697;29;20593;-74
2022/06/21 04:04:11;;;;;;;3.17;2.30;;;14.80;99.90;;;;;;4933995;29;20161;-76
2022/06/21 04:06:49;;;;;;;6.45;2.55;;;14.80;99.90;;;;;;4916996;29;20193;-76
2022/06/21 04:09:38;;;;;;;4.28;2.40;;;14.90;99.90;;;;;;4934123;29;20189;-77
2022/06/21 04:12:18;;;;;;;3.45;2.20;;;14.90;99.90;;;;;;4933472;29;20597;-76
2022/06/21 04:15:08;;;;;;;3.60;3.30;;;15.00;99.90;;;;;;4936330;29;20530;-76
2022/06/21 04:17:39;;;;;;;5.20;2.30;;;15.00;99.90;;;;;;4937374;29;20247;-76
2022/06/21 04:20:06;;;;;;;5.57;2.55;;;15.10;99.90;;;;;;4919668;29;20674;-76
2022/06/21 04:23:00;;;;;;;3.22;2.35;;;15.10;99.90;;;;;;4936676;29;20165;-76
2022/06/21 04:25:37;;;;;;;4.40;2.63;;;15.10;99.90;;;;;;4937074;29;20162;-76
2022/06/21 04:28:38;;;;;;;4.35;2.25;;;15.20;99.90;;;;;;4888623;29;20255;-77
2022/06/21 04:31:13;;;;;;;4.00;3.30;;;15.20;99.90;;;;;;4887695;29;20540;-77
2022/06/21 04:33:50;;;;;;;3.53;2.85;;;15.30;99.90;;;;;;4935676;29;20176;-77
2022/06/21 04:36:24;;;;;;;4.32;2.40;;;15.30;99.90;;;;;;4935777;29;20184;-77
2022/06/21 04:39:14;;;;;;;6.73;2.73;;;15.40;99.90;;;;;;4935567;29;20223;-76
2022/06/21 04:42:16;;;;;;;3.20;2.70;;;15.40;99.90;;;;;;4926332;29;20930;-76
2022/06/21 04:45:11;;;;;;;4.60;2.10;;;15.40;99.90;;;;;;4890260;29;20691;-76
2022/06/21 04:47:41;;;;;;;3.10;2.30;;;15.50;99.90;;;;;;4914541;29;20624;-76
2022/06/21 04:50:40;;;;;;;4.27;3.83;;;15.50;99.90;;;;;;4935897;29;20702;-76
2022/06/21 04:53:41;;;;;;;3.30;2.53;;;15.50;99.90;;;;;;4924610;29;20576;-77
2022/06/21 04:56:26;;;;;;;6.57;2.83;;;15.50;99.90;;;;;;4907076;29;20610;-77
2022/06/21 04:58:52;;;;;;;4.22;2.63;;;15.60;99.90;;;;;;4936117;29;20640;-77
2022/06/21 05:01:32;;;;;;;3.50;2.97;;;15.70;99.90;;;;;;4934214;29;20189;-77
2022/06/21 05:04:30;;;;;;;4.72;2.65;;;15.80;99.90;;;;;;4936479;29;20604;-77
2022/06/21 05:07:00;;;;;;;7.80;3.40;;;15.80;99.90;;;;;;4931184;29;20605;-77
2022/06/21 05:09:29;;;;;;;4.00;3.17;;;15.90;99.90;;;;;;4954293;28;20725;-77
2022/06/21 05:12:03;;;;;;;3.27;2.73;;;16.00;99.90;;;;;;4945396;28;20592;-77
2022/06/21 05:14:36;;;;;;;4.67;2.47;;;16.10;99.90;;;;;;4938650;29;20678;-77
2022/06/21 05:17:09;;;;;;;5.20;3.30;;;16.30;99.90;;;;;;4954916;28;21132;-77
2022/06/21 05:19:39;;;;;;;6.40;2.70;;;16.50;99.90;;;;;;4954146;28;20580;-77
2022/06/21 05:22:27;;;;;;;6.20;3.47;;;16.70;99.90;;;;;;4969773;28;20604;-77
2022/06/21 05:24:55;;;;;;;6.23;2.50;;;16.70;99.90;;;;;;4953615;28;20611;-77
2022/06/21 05:27:23;;;;;;;4.00;2.57;;;16.90;99.90;;;;;;4954610;28;20702;-77
2022/06/21 05:30:03;;;;;;;4.30;2.53;;;16.80;99.90;;;;;;4973567;28;20587;-77
2022/06/21 05:32:39;;;;;;;1.80;1.60;;;16.80;99.90;;;;;;4969590;28;20679;-77
2022/06/21 05:35:23;;;;;;;6.27;1.83;;;16.90;99.90;;;;;;4953983;28;20594;-77
2022/06/21 05:38:00;;;;;;;2.80;1.97;;;17.00;99.90;;;;;;4954991;28;20645;-77
2022/06/21 05:40:37;;;;;;;2.80;1.70;;;17.20;99.90;;;;;;4954103;28;20924;-77
2022/06/21 05:43:03;;;;;;;2.60;1.80;;;17.20;99.90;;;;;;4954907;28;20924;-77
2022/06/21 05:45:35;;;;;;;5.30;1.97;;;17.50;99.90;;;;;;4953799;28;21257;-77
2022/06/21 05:48:12;;;;;;;4.57;2.17;;;17.90;99.90;;;;;;4953513;28;20722;-77
2022/06/21 05:50:38;;;;;;;3.47;1.70;;;18.40;99.90;;;;;;4936808;29;20590;-77
2022/06/21 05:53:11;;;;;;;3.97;1.97;;;19.10;99.90;;;;;;4954690;28;20960;-77
2022/06/21 05:55:42;;;;;;;5.10;1.73;;;19.70;99.90;;;;;;4953325;28;20956;-77
2022/06/21 05:58:17;;;;;;;3.77;1.53;;;20.60;99.90;;;;;;4953395;28;20631;-77
2022/06/21 06:01:01;;;;;;;3.50;1.40;;;21.50;99.90;;;;;;4952511;28;20575;-77
2022/06/21 06:03:37;;;;;;;2.97;1.57;;;22.40;99.90;;;;;;4953687;28;20604;-77
2022/06/21 06:06:08;;;;;;;2.60;1.50;;;23.40;99.90;;;;;;4958540;28;20583;-76
2022/06/21 06:08:39;;;;;;;2.40;1.00;;;24.40;99.90;;;;;;4952411;28;21662;-76
2022/06/21 06:11:12;;;;;;;2.40;1.40;;;25.40;99.90;;;;;;4953591;28;20660;-76
2022/06/21 06:13:41;;;;;;;4.50;1.07;;;26.50;99.90;;;;;;4948097;28;20628;-76
2022/06/21 06:16:16;;;;;;;2.87;0.90;;;27.20;99.90;;;;;;4954175;28;20953;-76
2022/06/21 06:18:48;;;;;;;2.53;1.33;;;27.80;99.00;;;;;;4951798;28;20655;-75
2022/06/21 06:21:41;;;;;;;1.90;0.90;;;28.80;97.40;;;;;;4950206;28;20643;-76
2022/06/21 06:24:19;;;;;;;2.83;1.30;;;29.00;94.50;;;;;;4944295;28;20604;-75
2022/06/21 06:26:49;;;;;;;1.50;0.90;;;29.50;92.70;;;;;;4953802;28;20603;-76
2022/06/21 06:29:42;;;;;;;2.13;1.30;;;29.70;91.10;;;;;;4953188;28;20711;-76
2022/06/21 06:32:55;;;;;;;3.80;1.40;;;30.10;83.50;;;;;;4936228;28;20587;-76
2022/06/21 06:35:24;;;;;;;3.80;1.23;;;30.20;75.40;;;;;;4838653;29;20601;-77
2022/06/21 06:37:52;;;;;;;2.93;1.23;;;30.50;77.00;;;;;;4925761;29;20664;-76
2022/06/21 06:40:35;;;;;;;2.80;1.20;;;30.70;75.20;;;;;;4953376;28;20581;-76
2022/06/21 06:43:06;;;;;;;2.10;1.00;;;30.70;75.00;;;;;;4940294;29;20580;-76
2022/06/21 06:45:36;;;;;;;2.30;1.00;;;31.30;74.20;;;;;;4951937;28;20582;-76
2022/06/21 06:48:11;;;;;;;3.40;1.00;;;32.00;72.40;;;;;;4951450;28;21075;-76
2022/06/21 06:50:41;;;;;;;3.37;0.93;;;32.40;69.70;;;;;;4951686;28;20609;-76
2022/06/21 06:53:13;;;;;;;2.30;1.03;;;32.70;66.90;;;;;;4953200;28;20589;-76
2022/06/21 06:55:44;;;;;;;2.13;0.90;;;32.80;64.30;;;;;;4953218;28;20595;-76
2022/06/21 06:58:24;;;;;;;3.27;1.30;;;32.90;61.40;;;;;;4953330;28;20633;-76
2022/06/21 07:00:59;;;;;;;2.13;0.87;;;33.00;57.80;;;;;;4951071;28;21411;-76
2022/06/21 07:03:30;;;;;;;2.23;1.00;;;33.20;59.30;;;;;;4968372;28;20697;-76
2022/06/21 07:06:06;;;;;;;2.43;1.10;;;33.70;59.00;;;;;;4968104;28;20591;-76
2022/06/21 07:09:03;;;;;;;3.27;0.90;;;34.10;56.60;;;;;;4953555;28;21017;-77
2022/06/21 07:11:38;;;;;;;3.50;1.03;;;34.20;56.30;;;;;;4946900;28;20634;-76
2022/06/21 07:14:04;;;;;;;3.63;1.07;;;34.50;55.50;;;;;;4952608;29;20670;-76
2022/06/21 07:16:34;;;;;;;2.03;0.90;;;34.90;55.10;;;;;;4951094;29;21000;-77
2022/06/21 07:19:01;;;;;;;2.10;1.10;;;35.20;54.90;;;;;;4953538;28;20650;-77
2022/06/21 07:21:28;;;;;;;3.10;0.83;;;35.20;51.80;;;;;;4939383;29;20583;-77
2022/06/21 07:23:59;;;;;;;2.20;0.80;;;35.10;49.60;;;;;;4936563;29;21159;-76
2022/06/21 07:26:46;;;;;;;2.27;0.90;;;35.10;49.40;;;;;;4964350;28;20999;-76
2022/06/21 07:29:31;;;;;;;3.20;1.40;;;34.90;44.90;;;;;;4967979;28;20628;-76
2022/06/21 07:32:05;;;;;;;2.23;0.87;;;34.40;47.40;;;;;;4951575;29;20617;-76
2022/06/21 07:35:08;;;;;;;3.83;1.50;;;33.80;46.70;;;;;;4936160;29;20950;-77
2022/06/21 07:37:41;;;;;;;1.73;0.80;;;33.30;46.40;;;;;;4951907;28;20677;-76
2022/06/21 07:40:27;;;;;;;2.47;0.80;;;33.10;46.70;;;;;;4967681;28;21009;-76
2022/06/21 07:43:16;;;;;;;2.37;0.90;;;32.80;47.00;;;;;;4966379;29;20576;-76
2022/06/21 07:45:51;;;;;;;2.73;1.00;;;32.90;47.50;;;;;;4966962;29;20575;-76
2022/06/21 07:48:36;;;;;;;4.37;1.00;;;32.90;47.40;;;;;;4963957;28;20626;-76
2022/06/21 07:51:17;;;;;;;2.10;0.80;;;33.00;47.30;;;;;;4951941;29;20600;-75
2022/06/21 07:53:58;;;;;;;3.50;1.10;;;33.10;46.70;;;;;;4970895;29;20588;-76
2022/06/21 07:56:51;;;;;;;1.80;0.83;;;33.20;46.50;;;;;;4972523;28;20589;-75
2022/06/21 07:59:29;;;;;;;3.20;0.90;;;33.50;47.20;;;;;;4954420;29;20694;-77
2022/06/21 08:08:09;;;;;;;2.47;0.90;;;34.70;45.60;;;;;;4957099;28;20630;-77
2022/06/21 08:10:46;;;;;;;1.83;0.80;;;35.00;43.60;;;;;;4939504;29;20989;-76
2022/06/21 08:13:12;;;;;;;1.50;0.80;;;35.00;43.30;;;;;;4940330;29;20596;-76
2022/06/21 08:15:43;;;;;;;1.80;0.90;;;35.30;43.20;;;;;;4943442;28;20596;-77
2022/06/21 08:18:30;;;;;;;2.33;0.97;;;35.50;42.50;;;;;;4956092;28;20662;-78
2022/06/21 08:21:01;;;;;;;2.23;0.90;;;35.50;39.50;;;;;;4946460;28;21006;-77
2022/06/21 08:23:52;;;;;;;1.97;0.70;;;35.20;39.80;;;;;;4956287;29;20647;-75
2022/06/21 08:26:32;;;;;;;2.57;0.90;;;34.90;40.80;;;;;;4954486;28;21010;-76
2022/06/21 08:29:07;;;;;;;2.37;0.80;;;35.10;41.60;;;;;;4956318;28;20667;-76
2022/06/21 08:31:35;;;;;;;2.33;0.87;;;35.40;41.30;;;;;;4937796;29;20930;-75
2022/06/21 08:34:11;;;;;;;2.63;0.90;;;35.40;40.30;;;;;;4963795;28;20604;-75
2022/06/21 08:36:41;;;;;;;4.83;0.90;;;35.10;39.90;;;;;;4962398;28;20606;-76
2022/06/21 08:39:18;;;;;;;2.40;0.70;;;35.00;40.30;;;;;;4967297;23;20699;-76
2022/06/21 08:42:22;;;;;;;2.37;0.80;;;35.00;40.70;;;;;;4943612;29;20604;-75
2022/06/21 08:48:00;;;;;;;2.00;0.80;;;35.30;40.40;;;;;;4937601;28;20601;-75
2022/06/21 08:50:39;;;;;;;1.87;0.80;;;34.70;39.10;;;;;;4968896;28;20633;-75
2022/06/21 08:53:14;;;;;;;1.70;0.80;;;34.20;39.50;;;;;;4946446;28;20610;-75
2022/06/21 08:56:10;;;;;;;5.07;0.80;;;34.10;40.10;;;;;;4967119;28;20592;-76
2022/06/21 08:58:47;;;;;;;2.27;1.10;;;33.90;39.80;;;;;;4959209;28;20678;-76
2022/06/21 09:01:29;;;;;;;1.73;1.00;;;33.90;39.20;;;;;;4970362;28;20631;-76
2022/06/21 09:04:02;;;;;;;2.20;0.73;;;34.10;37.60;;;;;;4948969;28;20598;-76
2022/06/21 09:06:37;;;;;;;2.13;0.77;;;34.50;40.30;;;;;;4958815;28;20578;-77
2022/06/21 09:09:22;;;;;;;2.20;0.80;;;35.00;40.20;;;;;;4973865;28;20953;-77
2022/06/21 09:11:54;;;;;;;1.50;0.63;;;35.60;39.20;;;;;;4970420;28;21110;-76
2022/06/21 09:14:57;;;;;;;2.20;0.80;;;36.00;39.70;;;;;;4954763;29;20576;-74
2022/06/21 09:17:55;;;;;;;1.50;0.70;;;36.60;39.80;;;;;;4953435;29;20578;-74
2022/06/21 09:20:41;;;;;;;1.50;0.57;;;37.20;37.90;;;;;;4955874;28;21130;-74
2022/06/21 09:23:36;;;;;;;2.70;0.70;;;37.80;39.40;;;;;;4950690;29;20594;-75
2022/06/21 09:26:34;;;;;;;4.23;1.30;;;38.10;36.10;;;;;;4953367;29;20576;-75
2022/06/21 09:29:12;;;;;;;1.70;0.80;;;37.30;32.00;;;;;;4953934;28;20727;-74
2022/06/21 09:32:32;;;;;;;2.00;0.87;;;36.80;35.10;;;;;;4953514;28;20607;-75
2022/06/21 09:35:33;;;;;;;2.63;0.90;;;36.80;36.50;;;;;;4895030;29;20615;-75
2022/06/21 09:38:34;;;;;;;2.60;0.77;;;37.00;34.80;;;;;;4954473;29;21055;-75
2022/06/21 09:41:21;;;;;;;2.10;0.73;;;36.60;35.50;;;;;;4953817;28;20621;-74
2022/06/21 09:44:00;;;;;;;1.90;0.73;;;36.40;35.40;;;;;;4948736;28;20947;-74
2022/06/21 09:46:46;;;;;;;3.17;0.90;;;36.20;35.90;;;;;;4941275;28;21046;-74
2022/06/21 09:49:41;;;;;;;1.90;0.60;;;35.90;35.00;;;;;;4937063;29;21336;-74
2022/06/21 09:52:56;;;;;;;2.80;0.70;;;35.30;33.80;;;;;;4953672;29;20643;-74
2022/06/21 09:55:40;;;;;;;2.57;1.00;;;34.90;35.90;;;;;;4932499;29;20690;-74
2022/06/21 09:58:35;;;;;;;1.57;0.70;;;34.40;35.80;;;;;;4935210;29;20725;-73
2022/06/21 10:01:22;;;;;;;2.13;0.80;;;34.00;36.10;;;;;;4917966;29;20594;-73
2022/06/21 10:04:15;;;;;;;2.30;0.80;;;33.50;35.30;;;;;;4953852;29;20584;-74
2022/06/21 10:06:54;;;;;;;1.67;0.70;;;32.80;36.00;;;;;;4947996;29;20826;-73
2022/06/21 10:09:40;;;;;;;1.50;0.87;;;32.40;36.80;;;;;;4935361;29;20727;-74
2022/06/21 10:12:18;;;;;;;1.80;0.80;;;32.10;36.80;;;;;;4952264;28;20584;-74
2022/06/21 10:14:44;;;;;;;2.37;0.80;;;32.00;37.00;;;;;;4953461;29;20644;-75
2022/06/21 10:17:28;;;;;;;1.40;0.70;;;31.80;37.00;;;;;;4953963;29;21132;-75
2022/06/21 10:20:13;;;;;;;1.73;0.60;;;31.40;37.30;;;;;;4952902;28;20562;-75
2022/06/21 10:23:08;;;;;;;1.80;0.70;;;31.10;37.50;;;;;;4947053;29;20679;-75
2022/06/21 10:26:12;;;;;;;2.70;1.00;;;30.90;37.30;;;;;;4934480;29;20680;-74
2022/06/21 10:28:46;;;;;;;3.37;0.90;;;30.50;37.60;;;;;;4934525;29;20940;-74
2022/06/21 10:31:30;;;;;;;4.40;0.80;;;30.40;38.60;;;;;;4933457;29;21039;-75
2022/06/21 10:34:11;;;;;;;1.50;0.60;;;30.40;39.40;;;;;;4935389;29;20591;-74
2022/06/21 10:37:14;;;;;;;2.77;0.77;;;30.40;39.10;;;;;;4934414;29;20637;-75
2022/06/21 10:40:06;;;;;;;1.67;1.00;;;30.50;39.30;;;;;;4916954;29;20643;-75
2022/06/21 10:43:03;;;;;;;3.40;0.80;;;30.40;38.80;;;;;;4933938;29;20581;-74
2022/06/21 10:46:00;;;;;;;2.00;1.10;;;30.40;39.00;;;;;;4916727;29;20608;-74
2022/06/21 10:48:59;;;;;;;1.70;0.93;;;30.30;38.40;;;;;;4885578;29;20733;-75
2022/06/21 10:51:34;;;;;;;2.73;1.03;;;29.80;38.50;;;;;;4916307;29;20581;-73
2022/06/21 10:54:15;;;;;;;2.03;0.80;;;29.30;38.40;;;;;;4934081;29;21186;-75
2022/06/21 10:57:09;;;;;;;5.03;1.47;;;29.00;38.60;;;;;;4941365;29;21152;-74
2022/06/21 11:03:01;;;;;;;1.80;0.77;;;28.10;38.80;;;;;;4952041;29;20934;-73
2022/06/21 11:05:34;;;;;;;3.50;1.00;;;27.70;39.30;;;;;;4952960;29;20897;-73
2022/06/21 11:08:21;;;;;;;2.17;1.03;;;27.40;39.70;;;;;;4951819;29;20576;-74
2022/06/21 11:10:53;;;;;;;1.80;0.80;;;27.00;40.20;;;;;;4954049;28;20583;-74
2022/06/21 11:13:22;;;;;;;2.97;0.90;;;26.80;40.70;;;;;;4952872;28;20654;-73
2022/06/21 11:16:11;;;;;;;4.03;1.00;;;26.70;41.90;;;;;;4952883;29;20634;-74
2022/06/21 11:18:37;;;;;;;3.20;0.90;;;26.80;42.30;;;;;;4953092;28;20670;-76
2022/06/21 11:21:51;;;;;;;2.23;0.80;;;27.00;42.40;;;;;;4952161;29;21001;-77
2022/06/21 11:24:44;;;;;;;2.87;0.80;;;27.20;42.70;;;;;;4949119;28;20747;-77
2022/06/21 11:27:20;;;;;;;2.10;0.90;;;27.50;42.40;;;;;;4956743;29;20691;-77
2022/06/21 11:30:09;;;;;;;2.20;0.80;;;27.80;42.30;;;;;;4956669;28;20649;-77
2022/06/21 11:32:54;;;;;;;2.63;0.90;;;28.00;42.30;;;;;;4956293;29;20614;-76
2022/06/21 11:35:38;;;;;;;3.97;1.10;;;28.40;41.90;;;;;;4956891;29;20631;-77
2022/06/21 11:38:42;;;;;;;2.00;1.00;;;28.50;41.30;;;;;;4956479;29;20710;-77
2022/06/21 11:42:05;;;;;;;1.70;0.90;;;28.60;41.30;;;;;;4953185;29;21028;-77
2022/06/21 11:44:52;;;;;;;1.70;0.90;;;29.00;41.90;;;;;;4956580;29;20603;-77
2022/06/21 11:47:21;;;;;;;1.93;0.87;;;29.60;42.80;;;;;;4960187;29;20556;-77
2022/06/21 11:49:59;;;;;;;2.20;0.80;;;30.30;42.80;;;;;;4939645;29;20611;-78
2022/06/21 11:52:28;;;;;;;1.40;0.90;;;30.80;42.30;;;;;;4955847;29;20678;-77
2022/06/21 11:55:20;;;;;;;1.80;0.90;;;31.30;42.10;;;;;;4939066;29;20580;-78
2022/06/21 11:58:13;;;;;;;1.97;0.73;;;31.60;40.70;;;;;;4956168;29;20988;-76
2022/06/21 12:01:20;;;;;;;1.93;0.80;;;31.70;39.30;;;;;;4955516;29;20591;-78
2022/06/21 12:04:05;;;;;;;1.97;0.60;;;31.80;35.30;;;;;;4877985;29;20713;-76
2022/06/21 12:06:37;;;;;;;3.70;0.70;;;31.90;37.90;;;;;;4936405;29;20600;-77
2022/06/21 12:09:41;;;;;;;2.43;0.80;;;31.90;37.10;;;;;;4956130;28;20643;-77
2022/06/21 12:12:35;;;;;;;2.90;0.80;;;31.40;36.50;;;;;;4952519;29;20599;-77
2022/06/21 12:15:07;;;;;;;2.30;1.00;;;31.20;36.70;;;;;;4956055;28;20647;-76
2022/06/21 12:17:53;;;;;;;1.93;0.70;;;30.90;36.60;;;;;;4950068;29;20630;-76
2022/06/21 12:20:31;;;;;;;1.50;0.80;;;30.70;37.10;;;;;;4954820;28;20635;-77
2022/06/21 12:23:15;;;;;;;1.30;0.50;;;30.60;36.90;;;;;;4963956;28;20617;-76
2022/06/21 12:25:42;;;;;;;2.67;0.60;;;30.40;36.60;;;;;;4961915;28;20604;-75
2022/06/21 12:28:23;;;;;;;1.43;0.70;;;30.30;36.30;;;;;;4955634;28;20592;-77
2022/06/21 12:30:51;;;;;;;2.00;0.60;;;30.20;36.20;;;;;;4957083;28;20615;-76
2022/06/21 12:33:21;;;;;;;1.60;0.70;;;30.20;36.60;;;;;;4964153;28;20606;-77
2022/06/21 12:36:15;;;;;;;1.83;0.80;;;30.20;37.20;;;;;;4955454;28;21018;-77
2022/06/21 12:38:47;;;;;;;1.67;0.70;;;30.20;37.40;;;;;;4948904;28;20994;-78
2022/06/21 12:41:26;;;;;;;2.07;0.93;;;30.20;36.90;;;;;;4953731;28;21159;-77
2022/06/21 12:44:23;;;;;;;2.40;0.90;;;29.90;36.90;;;;;;4955436;28;20590;-77
2022/06/21 12:47:19;;;;;;;2.97;0.87;;;29.80;37.70;;;;;;4950589;29;21178;-77
2022/06/21 12:50:09;;;;;;;1.80;0.70;;;29.80;38.10;;;;;;4952846;28;21011;-77
2022/06/21 12:53:05;;;;;;;1.37;0.60;;;29.80;38.20;;;;;;4948155;29;20944;-77
2022/06/21 12:55:39;;;;;;;2.87;0.70;;;29.70;38.20;;;;;;4955781;28;20579;-77
2022/06/21 12:58:08;;;;;;;1.60;0.80;;;29.70;37.90;;;;;;4953645;29;21426;-77
2022/06/21 13:00:55;;;;;;;2.47;0.70;;;29.70;38.10;;;;;;4956458;28;20596;-78
2022/06/21 13:03:57;;;;;;;1.97;0.70;;;29.70;38.00;;;;;;4955736;28;20648;-78
2022/06/21 13:06:29;;;;;;;1.90;0.70;;;29.80;38.40;;;;;;4957381;29;20575;-78
2022/06/21 13:09:04;;;;;;;1.47;0.77;;;29.80;38.10;;;;;;4958619;28;21081;-78
2022/06/21 13:11:49;;;;;;;1.30;0.63;;;29.80;38.00;;;;;;4957496;28;20961;-77
2022/06/21 13:14:21;;;;;;;1.50;0.63;;;29.80;38.00;;;;;;4944870;29;20619;-78
2022/06/21 13:17:14;;;;;;;2.00;0.80;;;29.80;38.40;;;;;;4940032;29;20919;-78
2022/06/21 13:20:31;;;;;;;3.27;0.90;;;29.80;38.50;;;;;;4939424;29;20652;-78
2022/06/21 13:23:04;;;;;;;1.93;0.70;;;29.80;38.00;;;;;;4916154;29;20586;-78
2022/06/21 13:25:53;;;;;;;2.27;0.57;;;29.60;38.00;;;;;;4933197;29;20655;-76
2022/06/21 13:28:33;;;;;;;1.60;0.70;;;29.50;38.60;;;;;;4937023;29;20585;-77
2022/06/21 13:31:11;;;;;;;3.90;1.53;;;29.50;38.80;;;;;;4936413;29;20574;-77
2022/06/21 13:33:37;;;;;;;2.57;1.00;;;29.50;38.80;;;;;;4937597;29;20569;-77
2022/06/21 13:36:38;;;;;;;1.60;0.80;;;29.50;39.10;;;;;;4936951;29;20667;-76
2022/06/21 13:39:41;;;;;;;2.17;0.70;;;29.60;39.20;;;;;;4922120;29;21102;-76
2022/06/21 13:42:37;;;;;;;1.83;0.80;;;29.70;39.30;;;;;;4955323;29;20955;-76
2022/06/21 13:45:10;;;;;;;1.87;0.67;;;29.70;39.10;;;;;;4955106;29;20638;-77
2022/06/21 13:47:54;;;;;;;1.77;0.70;;;29.80;39.30;;;;;;4953804;28;20592;-76
2022/06/21 13:50:32;;;;;;;3.83;0.90;;;29.80;39.10;;;;;;4952757;28;21053;-78
2022/06/21 13:53:05;;;;;;;1.70;0.70;;;29.90;39.20;;;;;;4954476;28;20675;-76
2022/06/21 13:55:43;;;;;;;2.10;0.90;;;30.00;39.30;;;;;;4946467;29;20584;-76
2022/06/21 13:58:18;;;;;;;2.00;0.80;;;30.00;39.20;;;;;;4954229;29;20986;-76
2022/06/21 14:00:51;;;;;;;1.80;0.73;;;30.10;39.60;;;;;;4951516;29;21240;-76
2022/06/21 14:03:33;;;;;;;2.20;0.73;;;30.20;39.30;;;;;;4953581;28;21052;-77
2022/06/21 14:06:13;;;;;;;1.70;0.80;;;30.20;39.20;;;;;;4953911;29;20571;-76
2022/06/21 14:08:45;;;;;;;2.70;0.80;;;30.20;39.20;;;;;;4936644;29;20682;-76